sensor_id;sensor_type;location;lat;lon;timestamp;P1;durP1;ratioP1;P2;durP2;ratioP2
37305;SDS011;23193;42.656;21.170;2023-07-28T00:01:31;7.50;;;2.75;;
37305;SDS011;23193;42.656;21.170;2023-07-28T00:03:57;6.35;;;2.40;;
37305;SDS011;23193;42.656;21.170;2023-07-28T00:06:23;12.35;;;3.00;;
37305;SDS011;23193;42.656;21.170;2023-07-28T00:08:49;16.55;;;2.92;;
37305;SDS011;23193;42.656;21.170;2023-07-28T00:11:16;6.47;;;3.15;;
37305;SDS011;23193;42.656;21.170;2023-07-28T00:13:42;4.35;;;2.53;;
37305;SDS011;23193;42.656;21.170;2023-07-28T00:16:09;7.50;;;2.70;;
37305;SDS011;23193;42.656;21.170;2023-07-28T00:18:35;6.40;;;2.70;;
37305;SDS011;23193;42.656;21.170;2023-07-28T00:21:04;10.68;;;2.65;;
37305;SDS011;23193;42.656;21.170;2023-07-28T00:23:31;7.07;;;3.00;;
37305;SDS011;23193;42.656;21.170;2023-07-28T00:25:57;6.63;;;2.50;;
37305;SDS011;23193;42.656;21.170;2023-07-28T00:28:23;4.28;;;2.60;;
37305;SDS011;23193;42.656;21.170;2023-07-28T00:30:49;7.43;;;2.70;;
37305;SDS011;23193;42.656;21.170;2023-07-28T00:33:16;7.10;;;2.78;;
37305;SDS011;23193;42.656;21.170;2023-07-28T00:35:42;8.55;;;2.88;;
37305;SDS011;23193;42.656;21.170;2023-07-28T00:38:08;3.85;;;2.33;;
37305;SDS011;23193;42.656;21.170;2023-07-28T00:40:35;5.28;;;2.95;;
37305;SDS011;23193;42.656;21.170;2023-07-28T00:43:01;5.03;;;2.88;;
37305;SDS011;23193;42.656;21.170;2023-07-28T00:45:28;6.30;;;2.65;;
37305;SDS011;23193;42.656;21.170;2023-07-28T00:47:55;7.47;;;2.97;;
37305;SDS011;23193;42.656;21.170;2023-07-28T00:50:25;4.90;;;3.13;;
37305;SDS011;23193;42.656;21.170;2023-07-28T00:52:51;5.72;;;2.50;;
37305;SDS011;23193;42.656;21.170;2023-07-28T00:55:17;7.85;;;3.30;;
37305;SDS011;23193;42.656;21.170;2023-07-28T00:57:44;5.57;;;3.45;;
37305;SDS011;23193;42.656;21.170;2023-07-28T01:00:10;5.10;;;2.58;;
37305;SDS011;23193;42.656;21.170;2023-07-28T01:02:36;4.88;;;2.50;;
37305;SDS011;23193;42.656;21.170;2023-07-28T01:05:03;6.07;;;2.80;;
37305;SDS011;23193;42.656;21.170;2023-07-28T01:10:17;5.13;;;3.15;;
37305;SDS011;23193;42.656;21.170;2023-07-28T01:12:44;3.70;;;2.63;;
37305;SDS011;23193;42.656;21.170;2023-07-28T01:15:10;3.28;;;2.75;;
37305;SDS011;23193;42.656;21.170;2023-07-28T01:17:37;9.43;;;2.90;;
37305;SDS011;23193;42.656;21.170;2023-07-28T01:20:03;6.28;;;3.20;;
37305;SDS011;23193;42.656;21.170;2023-07-28T01:27:59;8.02;;;2.80;;
37305;SDS011;23193;42.656;21.170;2023-07-28T01:30:27;4.68;;;2.67;;
37305;SDS011;23193;42.656;21.170;2023-07-28T01:32:54;5.53;;;2.92;;
37305;SDS011;23193;42.656;21.170;2023-07-28T01:35:21;8.02;;;3.55;;
37305;SDS011;23193;42.656;21.170;2023-07-28T01:37:47;3.92;;;2.45;;
37305;SDS011;23193;42.656;21.170;2023-07-28T01:40:19;7.05;;;3.08;;
37305;SDS011;23193;42.656;21.170;2023-07-28T01:42:45;5.80;;;2.63;;
37305;SDS011;23193;42.656;21.170;2023-07-28T01:45:11;8.80;;;2.78;;
37305;SDS011;23193;42.656;21.170;2023-07-28T01:47:37;4.93;;;2.78;;
37305;SDS011;23193;42.656;21.170;2023-07-28T01:50:04;6.60;;;2.85;;
37305;SDS011;23193;42.656;21.170;2023-07-28T01:52:30;4.68;;;3.17;;
37305;SDS011;23193;42.656;21.170;2023-07-28T01:54:56;7.93;;;2.85;;
37305;SDS011;23193;42.656;21.170;2023-07-28T01:57:22;5.15;;;2.65;;
37305;SDS011;23193;42.656;21.170;2023-07-28T01:59:52;7.32;;;3.08;;
37305;SDS011;23193;42.656;21.170;2023-07-28T02:02:18;7.63;;;2.83;;
37305;SDS011;23193;42.656;21.170;2023-07-28T02:04:44;6.22;;;2.75;;
37305;SDS011;23193;42.656;21.170;2023-07-28T02:07:11;9.32;;;3.40;;
37305;SDS011;23193;42.656;21.170;2023-07-28T02:09:37;8.55;;;3.38;;
37305;SDS011;23193;42.656;21.170;2023-07-28T02:12:03;12.15;;;3.58;;
37305;SDS011;23193;42.656;21.170;2023-07-28T02:14:30;16.00;;;3.45;;
37305;SDS011;23193;42.656;21.170;2023-07-28T02:16:56;6.63;;;3.05;;
37305;SDS011;23193;42.656;21.170;2023-07-28T02:19:22;8.68;;;2.97;;
37305;SDS011;23193;42.656;21.170;2023-07-28T02:21:48;5.22;;;3.47;;
37305;SDS011;23193;42.656;21.170;2023-07-28T02:24:15;8.90;;;3.30;;
37305;SDS011;23193;42.656;21.170;2023-07-28T02:26:41;5.88;;;3.10;;
37305;SDS011;23193;42.656;21.170;2023-07-28T02:29:07;8.07;;;3.45;;
37305;SDS011;23193;42.656;21.170;2023-07-28T02:31:33;8.10;;;3.65;;
37305;SDS011;23193;42.656;21.170;2023-07-28T02:33:59;12.25;;;6.18;;
37305;SDS011;23193;42.656;21.170;2023-07-28T02:36:26;12.20;;;5.72;;
37305;SDS011;23193;42.656;21.170;2023-07-28T02:38:52;11.95;;;5.43;;
37305;SDS011;23193;42.656;21.170;2023-07-28T02:41:18;6.82;;;3.30;;
37305;SDS011;23193;42.656;21.170;2023-07-28T02:43:44;6.07;;;3.33;;
37305;SDS011;23193;42.656;21.170;2023-07-28T02:46:10;5.20;;;3.45;;
37305;SDS011;23193;42.656;21.170;2023-07-28T02:48:36;5.95;;;3.33;;
37305;SDS011;23193;42.656;21.170;2023-07-28T02:51:02;8.15;;;3.22;;
37305;SDS011;23193;42.656;21.170;2023-07-28T02:53:28;5.28;;;3.08;;
37305;SDS011;23193;42.656;21.170;2023-07-28T02:55:56;5.85;;;2.90;;
37305;SDS011;23193;42.656;21.170;2023-07-28T02:58:22;4.88;;;2.95;;
37305;SDS011;23193;42.656;21.170;2023-07-28T03:00:51;4.45;;;2.85;;
37305;SDS011;23193;42.656;21.170;2023-07-28T03:03:17;5.50;;;3.30;;
37305;SDS011;23193;42.656;21.170;2023-07-28T03:05:43;5.47;;;3.58;;
37305;SDS011;23193;42.656;21.170;2023-07-28T03:08:09;6.90;;;2.88;;
37305;SDS011;23193;42.656;21.170;2023-07-28T03:10:36;9.85;;;3.65;;
37305;SDS011;23193;42.656;21.170;2023-07-28T03:13:02;11.02;;;3.53;;
37305;SDS011;23193;42.656;21.170;2023-07-28T03:15:28;6.28;;;3.60;;
37305;SDS011;23193;42.656;21.170;2023-07-28T03:17:54;10.30;;;4.82;;
37305;SDS011;23193;42.656;21.170;2023-07-28T03:20:20;7.63;;;4.95;;
37305;SDS011;23193;42.656;21.170;2023-07-28T03:22:47;13.27;;;4.78;;
37305;SDS011;23193;42.656;21.170;2023-07-28T03:25:13;7.72;;;4.65;;
37305;SDS011;23193;42.656;21.170;2023-07-28T03:27:39;9.48;;;5.13;;
37305;SDS011;23193;42.656;21.170;2023-07-28T03:30:05;10.75;;;4.70;;
37305;SDS011;23193;42.656;21.170;2023-07-28T03:32:35;6.57;;;4.47;;
37305;SDS011;23193;42.656;21.170;2023-07-28T03:35:02;13.23;;;4.28;;
37305;SDS011;23193;42.656;21.170;2023-07-28T03:37:30;10.82;;;4.25;;
37305;SDS011;23193;42.656;21.170;2023-07-28T03:39:56;8.18;;;3.70;;
37305;SDS011;23193;42.656;21.170;2023-07-28T03:42:23;5.88;;;3.70;;
37305;SDS011;23193;42.656;21.170;2023-07-28T03:44:49;11.38;;;3.70;;
37305;SDS011;23193;42.656;21.170;2023-07-28T03:47:15;11.45;;;4.30;;
37305;SDS011;23193;42.656;21.170;2023-07-28T03:49:41;13.20;;;4.28;;
37305;SDS011;23193;42.656;21.170;2023-07-28T03:52:07;7.93;;;3.85;;
37305;SDS011;23193;42.656;21.170;2023-07-28T03:54:33;4.65;;;3.70;;
37305;SDS011;23193;42.656;21.170;2023-07-28T03:57:00;4.88;;;3.33;;
37305;SDS011;23193;42.656;21.170;2023-07-28T03:59:27;7.07;;;3.70;;
37305;SDS011;23193;42.656;21.170;2023-07-28T04:01:53;8.65;;;3.78;;
37305;SDS011;23193;42.656;21.170;2023-07-28T04:04:19;8.80;;;4.75;;
37305;SDS011;23193;42.656;21.170;2023-07-28T04:06:46;5.10;;;3.55;;
37305;SDS011;23193;42.656;21.170;2023-07-28T04:09:13;6.30;;;4.25;;
37305;SDS011;23193;42.656;21.170;2023-07-28T04:11:40;13.98;;;5.32;;
37305;SDS011;23193;42.656;21.170;2023-07-28T04:14:07;13.63;;;5.75;;
37305;SDS011;23193;42.656;21.170;2023-07-28T04:16:33;7.75;;;5.50;;
37305;SDS011;23193;42.656;21.170;2023-07-28T04:18:59;9.65;;;5.85;;
37305;SDS011;23193;42.656;21.170;2023-07-28T04:21:26;9.13;;;6.25;;
37305;SDS011;23193;42.656;21.170;2023-07-28T04:23:55;9.57;;;6.10;;
37305;SDS011;23193;42.656;21.170;2023-07-28T04:26:24;10.95;;;6.38;;
37305;SDS011;23193;42.656;21.170;2023-07-28T04:28:50;10.10;;;5.75;;
37305;SDS011;23193;42.656;21.170;2023-07-28T04:31:16;15.13;;;5.85;;
37305;SDS011;23193;42.656;21.170;2023-07-28T04:33:43;11.82;;;6.50;;
37305;SDS011;23193;42.656;21.170;2023-07-28T04:36:10;10.65;;;6.47;;
37305;SDS011;23193;42.656;21.170;2023-07-28T04:38:36;12.63;;;6.63;;
37305;SDS011;23193;42.656;21.170;2023-07-28T04:41:02;15.25;;;6.32;;
37305;SDS011;23193;42.656;21.170;2023-07-28T04:43:28;25.35;;;6.63;;
37305;SDS011;23193;42.656;21.170;2023-07-28T04:45:54;19.02;;;6.47;;
37305;SDS011;23193;42.656;21.170;2023-07-28T04:48:21;7.20;;;4.20;;
37305;SDS011;23193;42.656;21.170;2023-07-28T04:50:47;14.57;;;4.28;;
37305;SDS011;23193;42.656;21.170;2023-07-28T04:53:13;9.80;;;4.57;;
37305;SDS011;23193;42.656;21.170;2023-07-28T04:55:39;4.88;;;3.47;;
37305;SDS011;23193;42.656;21.170;2023-07-28T04:58:05;11.77;;;3.60;;
37305;SDS011;23193;42.656;21.170;2023-07-28T05:36:43;11.65;;;5.68;;
37305;SDS011;23193;42.656;21.170;2023-07-28T05:39:11;14.45;;;5.10;;
37305;SDS011;23193;42.656;21.170;2023-07-28T05:41:37;11.35;;;5.03;;
37305;SDS011;23193;42.656;21.170;2023-07-28T05:44:04;16.42;;;4.82;;
37305;SDS011;23193;42.656;21.170;2023-07-28T05:46:30;15.75;;;4.72;;
37305;SDS011;23193;42.656;21.170;2023-07-28T05:48:57;14.07;;;4.60;;
37305;SDS011;23193;42.656;21.170;2023-07-28T05:51:24;13.18;;;4.22;;
37305;SDS011;23193;42.656;21.170;2023-07-28T05:53:50;19.20;;;4.78;;
37305;SDS011;23193;42.656;21.170;2023-07-28T05:56:16;16.50;;;5.00;;
37305;SDS011;23193;42.656;21.170;2023-07-28T05:58:44;13.00;;;4.35;;
37305;SDS011;23193;42.656;21.170;2023-07-28T06:01:10;13.60;;;3.40;;
37305;SDS011;23193;42.656;21.170;2023-07-28T06:26:32;13.10;;;3.70;;
37305;SDS011;23193;42.656;21.170;2023-07-28T06:28:58;13.52;;;4.28;;
37305;SDS011;23193;42.656;21.170;2023-07-28T06:31:24;8.50;;;3.85;;
37305;SDS011;23193;42.656;21.170;2023-07-28T06:33:50;9.98;;;3.45;;
37305;SDS011;23193;42.656;21.170;2023-07-28T06:36:16;11.57;;;3.35;;
37305;SDS011;23193;42.656;21.170;2023-07-28T06:38:43;13.00;;;4.35;;
37305;SDS011;23193;42.656;21.170;2023-07-28T06:41:13;12.73;;;3.65;;
37305;SDS011;23193;42.656;21.170;2023-07-28T06:43:39;9.00;;;3.67;;
37305;SDS011;23193;42.656;21.170;2023-07-28T06:46:06;20.73;;;3.85;;
37305;SDS011;23193;42.656;21.170;2023-07-28T06:48:32;11.80;;;3.42;;
37305;SDS011;23193;42.656;21.170;2023-07-28T06:50:58;21.33;;;5.20;;
37305;SDS011;23193;42.656;21.170;2023-07-28T06:53:24;10.25;;;3.67;;
37305;SDS011;23193;42.656;21.170;2023-07-28T06:55:51;12.77;;;4.38;;
37305;SDS011;23193;42.656;21.170;2023-07-28T06:58:17;16.33;;;3.70;;
37305;SDS011;23193;42.656;21.170;2023-07-28T07:00:43;19.67;;;3.42;;
37305;SDS011;23193;42.656;21.170;2023-07-28T07:03:09;10.85;;;3.47;;
37305;SDS011;23193;42.656;21.170;2023-07-28T07:05:36;8.32;;;3.13;;
37305;SDS011;23193;42.656;21.170;2023-07-28T07:08:02;13.38;;;4.03;;
37305;SDS011;23193;42.656;21.170;2023-07-28T07:10:29;12.30;;;3.35;;
37305;SDS011;23193;42.656;21.170;2023-07-28T07:12:55;5.45;;;2.65;;
37305;SDS011;23193;42.656;21.170;2023-07-28T07:15:21;6.07;;;2.95;;
37305;SDS011;23193;42.656;21.170;2023-07-28T07:17:47;7.18;;;2.72;;
37305;SDS011;23193;42.656;21.170;2023-07-28T07:20:14;12.63;;;3.20;;
37305;SDS011;23193;42.656;21.170;2023-07-28T07:22:40;9.13;;;3.15;;
37305;SDS011;23193;42.656;21.170;2023-07-28T07:25:06;7.40;;;3.53;;
37305;SDS011;23193;42.656;21.170;2023-07-28T07:27:33;5.13;;;2.63;;
37305;SDS011;23193;42.656;21.170;2023-07-28T07:29:59;11.57;;;2.92;;
37305;SDS011;23193;42.656;21.170;2023-07-28T07:32:25;15.93;;;3.15;;
37305;SDS011;23193;42.656;21.170;2023-07-28T07:34:51;7.18;;;3.00;;
37305;SDS011;23193;42.656;21.170;2023-07-28T07:37:18;7.25;;;2.55;;
37305;SDS011;23193;42.656;21.170;2023-07-28T07:39:44;12.73;;;3.05;;
37305;SDS011;23193;42.656;21.170;2023-07-28T07:42:10;7.43;;;2.40;;
37305;SDS011;23193;42.656;21.170;2023-07-28T07:44:38;6.57;;;2.60;;
37305;SDS011;23193;42.656;21.170;2023-07-28T07:47:11;7.78;;;2.72;;
37305;SDS011;23193;42.656;21.170;2023-07-28T07:49:38;4.55;;;2.38;;
37305;SDS011;23193;42.656;21.170;2023-07-28T07:52:05;14.27;;;3.25;;
37305;SDS011;23193;42.656;21.170;2023-07-28T07:54:31;11.95;;;2.45;;
37305;SDS011;23193;42.656;21.170;2023-07-28T07:56:57;7.00;;;2.88;;
37305;SDS011;23193;42.656;21.170;2023-07-28T07:59:23;5.82;;;2.53;;
37305;SDS011;23193;42.656;21.170;2023-07-28T08:01:53;9.25;;;2.60;;
37305;SDS011;23193;42.656;21.170;2023-07-28T08:04:19;5.78;;;2.60;;
37305;SDS011;23193;42.656;21.170;2023-07-28T08:06:45;5.70;;;2.72;;
37305;SDS011;23193;42.656;21.170;2023-07-28T08:09:11;6.45;;;2.83;;
37305;SDS011;23193;42.656;21.170;2023-07-28T08:11:37;5.38;;;2.55;;
37305;SDS011;23193;42.656;21.170;2023-07-28T08:14:05;4.22;;;2.55;;
37305;SDS011;23193;42.656;21.170;2023-07-28T08:16:31;4.40;;;2.35;;
37305;SDS011;23193;42.656;21.170;2023-07-28T08:18:57;8.65;;;2.53;;
37305;SDS011;23193;42.656;21.170;2023-07-28T08:21:23;3.58;;;1.88;;
37305;SDS011;23193;42.656;21.170;2023-07-28T08:23:50;7.13;;;2.88;;
37305;SDS011;23193;42.656;21.170;2023-07-28T08:26:16;4.72;;;2.30;;
37305;SDS011;23193;42.656;21.170;2023-07-28T08:28:42;9.13;;;2.88;;
37305;SDS011;23193;42.656;21.170;2023-07-28T08:31:08;6.03;;;2.30;;
37305;SDS011;23193;42.656;21.170;2023-07-28T08:33:34;10.23;;;2.60;;
37305;SDS011;23193;42.656;21.170;2023-07-28T08:36:00;6.82;;;2.65;;
37305;SDS011;23193;42.656;21.170;2023-07-28T08:38:27;4.25;;;2.45;;
37305;SDS011;23193;42.656;21.170;2023-07-28T08:40:53;4.75;;;2.00;;
37305;SDS011;23193;42.656;21.170;2023-07-28T08:43:19;5.30;;;2.58;;
37305;SDS011;23193;42.656;21.170;2023-07-28T08:45:45;5.20;;;2.40;;
37305;SDS011;23193;42.656;21.170;2023-07-28T08:48:11;7.93;;;2.67;;
37305;SDS011;23193;42.656;21.170;2023-07-28T08:50:37;6.15;;;2.50;;
37305;SDS011;23193;42.656;21.170;2023-07-28T08:53:03;5.78;;;2.08;;
37305;SDS011;23193;42.656;21.170;2023-07-28T08:55:29;7.13;;;2.58;;
37305;SDS011;23193;42.656;21.170;2023-07-28T08:57:56;10.98;;;2.78;;
37305;SDS011;23193;42.656;21.170;2023-07-28T09:00:22;5.43;;;2.38;;
37305;SDS011;23193;42.656;21.170;2023-07-28T09:02:50;6.15;;;3.17;;
37305;SDS011;23193;42.656;21.170;2023-07-28T09:05:19;7.55;;;2.42;;
37305;SDS011;23193;42.656;21.170;2023-07-28T09:07:49;5.70;;;2.10;;
37305;SDS011;23193;42.656;21.170;2023-07-28T09:10:17;6.47;;;2.50;;
37305;SDS011;23193;42.656;21.170;2023-07-28T09:12:49;7.30;;;2.90;;
37305;SDS011;23193;42.656;21.170;2023-07-28T09:15:16;8.52;;;3.47;;
37305;SDS011;23193;42.656;21.170;2023-07-28T09:17:43;8.00;;;2.55;;
37305;SDS011;23193;42.656;21.170;2023-07-28T09:20:12;10.20;;;4.03;;
37305;SDS011;23193;42.656;21.170;2023-07-28T09:22:39;6.65;;;2.53;;
37305;SDS011;23193;42.656;21.170;2023-07-28T09:25:12;18.75;;;7.40;;
37305;SDS011;23193;42.656;21.170;2023-07-28T09:27:38;10.35;;;3.92;;
37305;SDS011;23193;42.656;21.170;2023-07-28T09:30:04;4.72;;;2.13;;
37305;SDS011;23193;42.656;21.170;2023-07-28T09:32:32;6.28;;;2.60;;
37305;SDS011;23193;42.656;21.170;2023-07-28T09:35:10;3.97;;;2.00;;
37305;SDS011;23193;42.656;21.170;2023-07-28T09:37:38;4.63;;;2.20;;
37305;SDS011;23193;42.656;21.170;2023-07-28T09:40:05;6.30;;;2.40;;
37305;SDS011;23193;42.656;21.170;2023-07-28T09:42:31;9.07;;;2.30;;
37305;SDS011;23193;42.656;21.170;2023-07-28T09:44:58;5.78;;;2.22;;
37305;SDS011;23193;42.656;21.170;2023-07-28T09:47:24;5.93;;;2.58;;
37305;SDS011;23193;42.656;21.170;2023-07-28T09:49:50;16.45;;;8.38;;
37305;SDS011;23193;42.656;21.170;2023-07-28T09:52:16;5.93;;;2.65;;
37305;SDS011;23193;42.656;21.170;2023-07-28T09:54:44;9.45;;;3.00;;
37305;SDS011;23193;42.656;21.170;2023-07-28T09:57:12;6.35;;;2.72;;
37305;SDS011;23193;42.656;21.170;2023-07-28T09:59:39;9.15;;;2.63;;
37305;SDS011;23193;42.656;21.170;2023-07-28T10:02:06;5.10;;;2.70;;
37305;SDS011;23193;42.656;21.170;2023-07-28T10:04:32;5.78;;;2.45;;
37305;SDS011;23193;42.656;21.170;2023-07-28T10:06:59;9.43;;;2.83;;
37305;SDS011;23193;42.656;21.170;2023-07-28T10:09:27;5.07;;;2.35;;
37305;SDS011;23193;42.656;21.170;2023-07-28T10:11:54;9.82;;;3.70;;
37305;SDS011;23193;42.656;21.170;2023-07-28T10:14:30;4.35;;;2.45;;
37305;SDS011;23193;42.656;21.170;2023-07-28T10:16:57;10.77;;;3.60;;
37305;SDS011;23193;42.656;21.170;2023-07-28T10:19:26;4.32;;;2.63;;
37305;SDS011;23193;42.656;21.170;2023-07-28T10:27:36;7.60;;;2.92;;
37305;SDS011;23193;42.656;21.170;2023-07-28T10:30:04;9.30;;;2.60;;
37305;SDS011;23193;42.656;21.170;2023-07-28T10:32:44;7.95;;;2.30;;
37305;SDS011;23193;42.656;21.170;2023-07-28T10:37:46;6.78;;;2.88;;
37305;SDS011;23193;42.656;21.170;2023-07-28T10:42:54;4.72;;;2.28;;
37305;SDS011;23193;42.656;21.170;2023-07-28T10:45:21;3.70;;;2.47;;
37305;SDS011;23193;42.656;21.170;2023-07-28T10:47:48;5.88;;;2.33;;
37305;SDS011;23193;42.656;21.170;2023-07-28T10:50:14;4.50;;;2.55;;
37305;SDS011;23193;42.656;21.170;2023-07-28T10:52:44;4.18;;;2.10;;
37305;SDS011;23193;42.656;21.170;2023-07-28T10:55:17;53.92;;;5.47;;
37305;SDS011;23193;42.656;21.170;2023-07-28T10:57:45;6.10;;;2.42;;
37305;SDS011;23193;42.656;21.170;2023-07-28T11:00:12;5.28;;;2.53;;
37305;SDS011;23193;42.656;21.170;2023-07-28T11:02:43;3.05;;;1.92;;
37305;SDS011;23193;42.656;21.170;2023-07-28T11:05:11;10.75;;;3.17;;
37305;SDS011;23193;42.656;21.170;2023-07-28T11:07:38;3.65;;;2.05;;
37305;SDS011;23193;42.656;21.170;2023-07-28T11:10:04;6.20;;;2.67;;
37305;SDS011;23193;42.656;21.170;2023-07-28T11:12:32;5.78;;;2.53;;
37305;SDS011;23193;42.656;21.170;2023-07-28T11:14:58;5.22;;;2.38;;
37305;SDS011;23193;42.656;21.170;2023-07-28T11:17:24;5.05;;;2.50;;
37305;SDS011;23193;42.656;21.170;2023-07-28T11:19:52;6.82;;;3.15;;
37305;SDS011;23193;42.656;21.170;2023-07-28T11:22:18;11.95;;;3.00;;
37305;SDS011;23193;42.656;21.170;2023-07-28T11:24:44;6.25;;;3.65;;
37305;SDS011;23193;42.656;21.170;2023-07-28T11:27:11;4.32;;;2.72;;
37305;SDS011;23193;42.656;21.170;2023-07-28T11:29:37;7.05;;;2.50;;
37305;SDS011;23193;42.656;21.170;2023-07-28T11:32:04;3.50;;;2.35;;
37305;SDS011;23193;42.656;21.170;2023-07-28T11:34:33;2.90;;;2.45;;
37305;SDS011;23193;42.656;21.170;2023-07-28T11:37:00;8.23;;;2.97;;
37305;SDS011;23193;42.656;21.170;2023-07-28T11:39:27;5.47;;;2.50;;
37305;SDS011;23193;42.656;21.170;2023-07-28T11:41:54;7.63;;;2.80;;
37305;SDS011;23193;42.656;21.170;2023-07-28T11:44:20;7.88;;;3.35;;
37305;SDS011;23193;42.656;21.170;2023-07-28T11:46:46;8.07;;;3.00;;
